Terminal Aerodrome Forecast
Issued by NWS

Home | Current Version | Previous Version | Text Only | Print | Product List | Glossary On
Versions: 1 2 3 4 5 6 7 8 9 10 11 12 13 14 15 16 17 18 19 20 21 22 23 24 25
000
FTUS44 KFWD 220500
TAFFTW
TAF
KFTW 220520Z 2206/2306 14003KT P6SM SCT250
     FM221200 VRB03KT 6SM BR FEW040 FEW250
     FM221500 13008KT P6SM SCT040 SCT250=

USA.gov is the U.S. government's official web portal to all federal, state and local government web resources and services.